sensor_id;sensor_type;location;lat;lon;timestamp;pressure;altitude;pressure_sealevel;temperature;humidity
14902;BME280;7542;49.078;9.194;2023-05-29T00:00:05;98641.72;;;30.53;25.20
14902;BME280;7542;49.078;9.194;2023-05-29T00:01:10;98641.50;;;30.49;25.90
14902;BME280;7542;49.078;9.194;2023-05-29T00:02:12;98646.09;;;30.49;25.67
14902;BME280;7542;49.078;9.194;2023-05-29T00:03:14;98643.13;;;30.50;25.42
14902;BME280;7542;49.078;9.194;2023-05-29T00:04:16;98642.59;;;30.48;25.40
14902;BME280;7542;49.078;9.194;2023-05-29T00:05:18;98642.59;;;30.48;25.57
14902;BME280;7542;49.078;9.194;2023-05-29T00:06:20;98645.31;;;30.48;25.17
14902;BME280;7542;49.078;9.194;2023-05-29T00:07:23;98636.69;;;30.46;25.34
14902;BME280;7542;49.078;9.194;2023-05-29T00:08:24;98642.91;;;30.47;25.32
14902;BME280;7542;49.078;9.194;2023-05-29T00:09:27;98635.38;;;30.44;25.35
14902;BME280;7542;49.078;9.194;2023-05-29T00:10:30;98637.00;;;30.45;25.68
14902;BME280;7542;49.078;9.194;2023-05-29T00:11:33;98638.69;;;30.41;25.30
14902;BME280;7542;49.078;9.194;2023-05-29T00:12:36;98642.69;;;30.43;25.70
14902;BME280;7542;49.078;9.194;2023-05-29T00:13:39;98636.00;;;30.41;25.43
14902;BME280;7542;49.078;9.194;2023-05-29T00:14:42;98632.75;;;30.39;25.79
14902;BME280;7542;49.078;9.194;2023-05-29T00:15:46;98641.66;;;30.39;25.44
14902;BME280;7542;49.078;9.194;2023-05-29T00:16:49;98636.56;;;30.38;25.62
14902;BME280;7542;49.078;9.194;2023-05-29T00:17:52;98635.25;;;30.35;25.64
14902;BME280;7542;49.078;9.194;2023-05-29T00:18:55;98633.34;;;30.36;25.57
14902;BME280;7542;49.078;9.194;2023-05-29T00:20:00;98637.66;;;30.37;25.45
14902;BME280;7542;49.078;9.194;2023-05-29T00:21:03;98636.88;;;30.36;25.97
14902;BME280;7542;49.078;9.194;2023-05-29T00:22:06;98640.97;;;30.34;25.54
14902;BME280;7542;49.078;9.194;2023-05-29T00:23:09;98633.97;;;30.33;26.01
14902;BME280;7542;49.078;9.194;2023-05-29T00:24:12;98641.28;;;30.32;25.99
14902;BME280;7542;49.078;9.194;2023-05-29T00:25:15;98640.47;;;30.32;25.50
14902;BME280;7542;49.078;9.194;2023-05-29T00:26:17;98637.28;;;30.29;26.13
14902;BME280;7542;49.078;9.194;2023-05-29T00:27:20;98633.25;;;30.27;25.96
14902;BME280;7542;49.078;9.194;2023-05-29T00:28:22;98640.56;;;30.26;26.24
14902;BME280;7542;49.078;9.194;2023-05-29T00:29:24;98638.16;;;30.25;26.28
14902;BME280;7542;49.078;9.194;2023-05-29T00:30:27;98640.56;;;30.26;25.99
14902;BME280;7542;49.078;9.194;2023-05-29T00:31:29;98644.34;;;30.25;26.14
14902;BME280;7542;49.078;9.194;2023-05-29T00:32:32;98641.16;;;30.23;26.13
14902;BME280;7542;49.078;9.194;2023-05-29T00:33:34;98644.16;;;30.22;25.99
14902;BME280;7542;49.078;9.194;2023-05-29T00:34:37;98636.53;;;30.24;26.24
14902;BME280;7542;49.078;9.194;2023-05-29T00:35:39;98637.94;;;30.21;25.81
14902;BME280;7542;49.078;9.194;2023-05-29T00:36:42;98636.34;;;30.20;25.98
14902;BME280;7542;49.078;9.194;2023-05-29T00:37:44;98638.75;;;30.22;26.26
14902;BME280;7542;49.078;9.194;2023-05-29T00:38:47;98640.97;;;30.20;26.35
14902;BME280;7542;49.078;9.194;2023-05-29T00:39:49;98637.44;;;30.19;26.36
14902;BME280;7542;49.078;9.194;2023-05-29T00:40:52;98635.03;;;30.18;26.41
14902;BME280;7542;49.078;9.194;2023-05-29T00:41:54;98636.13;;;30.17;26.43
14902;BME280;7542;49.078;9.194;2023-05-29T00:42:56;98631.50;;;30.17;26.14
14902;BME280;7542;49.078;9.194;2023-05-29T00:43:59;98638.03;;;30.16;26.09
14902;BME280;7542;49.078;9.194;2023-05-29T00:45:01;98637.22;;;30.16;26.40
14902;BME280;7542;49.078;9.194;2023-05-29T00:46:03;98630.22;;;30.15;26.02
14902;BME280;7542;49.078;9.194;2023-05-29T00:47:06;98633.22;;;30.13;26.45
14902;BME280;7542;49.078;9.194;2023-05-29T00:48:09;98631.31;;;30.14;26.19
14902;BME280;7542;49.078;9.194;2023-05-29T00:49:12;98632.72;;;30.11;26.04
14902;BME280;7542;49.078;9.194;2023-05-29T00:50:15;98633.81;;;30.10;26.07
14902;BME280;7542;49.078;9.194;2023-05-29T00:51:18;98630.00;;;30.11;26.19
14902;BME280;7542;49.078;9.194;2023-05-29T00:52:21;98628.69;;;30.09;26.57
14902;BME280;7542;49.078;9.194;2023-05-29T00:53:23;98638.41;;;30.10;26.53
14902;BME280;7542;49.078;9.194;2023-05-29T00:54:28;98622.50;;;30.08;26.45
14902;BME280;7542;49.078;9.194;2023-05-29T00:55:31;98619.78;;;30.08;26.14
14902;BME280;7542;49.078;9.194;2023-05-29T00:56:39;98622.50;;;30.08;26.17
14902;BME280;7542;49.078;9.194;2023-05-29T00:57:45;98623.03;;;30.05;26.40
14902;BME280;7542;49.078;9.194;2023-05-29T00:58:50;98620.13;;;30.01;25.91
14902;BME280;7542;49.078;9.194;2023-05-29T00:59:53;98627.13;;;30.02;26.43
14902;BME280;7542;49.078;9.194;2023-05-29T01:00:56;98625.25;;;30.03;25.93
14902;BME280;7542;49.078;9.194;2023-05-29T01:02:00;98619.84;;;30.03;26.14
14902;BME280;7542;49.078;9.194;2023-05-29T01:03:05;98617.44;;;30.01;26.28
14902;BME280;7542;49.078;9.194;2023-05-29T01:04:10;98616.63;;;30.01;26.41
14902;BME280;7542;49.078;9.194;2023-05-29T01:05:14;98613.72;;;29.97;26.45
14902;BME280;7542;49.078;9.194;2023-05-29T01:06:17;98619.44;;;29.96;26.11
14902;BME280;7542;49.078;9.194;2023-05-29T01:07:20;98620.78;;;29.93;26.24
14902;BME280;7542;49.078;9.194;2023-05-29T01:08:22;98618.41;;;29.92;26.50
14902;BME280;7542;49.078;9.194;2023-05-29T01:09:24;98619.50;;;29.91;26.17
14902;BME280;7542;49.078;9.194;2023-05-29T01:10:27;98620.91;;;29.88;26.25
14902;BME280;7542;49.078;9.194;2023-05-29T01:11:49;98624.09;;;29.90;26.29
14902;BME280;7542;49.078;9.194;2023-05-29T01:13:05;98622.00;;;29.87;26.47
14902;BME280;7542;49.078;9.194;2023-05-29T01:14:17;98615.56;;;29.83;26.52
14902;BME280;7542;49.078;9.194;2023-05-29T01:15:37;98617.16;;;29.84;26.54
14902;BME280;7542;49.078;9.194;2023-05-29T01:17:04;98621.75;;;29.84;26.41
14902;BME280;7542;49.078;9.194;2023-05-29T01:22:35;98619.81;;;29.70;26.96
14902;BME280;7542;49.078;9.194;2023-05-29T01:24:11;98618.72;;;29.71;26.52
14902;BME280;7542;49.078;9.194;2023-05-29T01:26:47;98623.41;;;29.66;26.39
14902;BME280;7542;49.078;9.194;2023-05-29T01:27:51;98616.47;;;29.60;26.81
14902;BME280;7542;49.078;9.194;2023-05-29T01:28:58;98610.25;;;29.59;26.96
14902;BME280;7542;49.078;9.194;2023-05-29T01:30:03;98612.44;;;29.57;26.71
14902;BME280;7542;49.078;9.194;2023-05-29T01:31:07;98615.16;;;29.57;26.88
14902;BME280;7542;49.078;9.194;2023-05-29T01:32:11;98617.84;;;29.57;26.80
14902;BME280;7542;49.078;9.194;2023-05-29T01:33:14;98616.25;;;29.56;26.83
14902;BME280;7542;49.078;9.194;2023-05-29T01:34:16;98621.94;;;29.55;26.55
14902;BME280;7542;49.078;9.194;2023-05-29T01:35:19;98615.22;;;29.52;26.96
14902;BME280;7542;49.078;9.194;2023-05-29T01:36:22;98617.13;;;29.52;27.10
14902;BME280;7542;49.078;9.194;2023-05-29T01:37:24;98619.81;;;29.52;26.97
14902;BME280;7542;49.078;9.194;2023-05-29T01:38:27;98620.41;;;29.49;26.97
14902;BME280;7542;49.078;9.194;2023-05-29T01:39:31;98625.81;;;29.49;26.70
14902;BME280;7542;49.078;9.194;2023-05-29T01:40:34;98626.63;;;29.49;26.84
14902;BME280;7542;49.078;9.194;2023-05-29T01:41:38;98621.22;;;29.49;26.77
14902;BME280;7542;49.078;9.194;2023-05-29T01:42:40;98622.31;;;29.48;26.61
14902;BME280;7542;49.078;9.194;2023-05-29T01:43:44;98617.16;;;29.47;26.99
14902;BME280;7542;49.078;9.194;2023-05-29T01:44:47;98621.78;;;29.46;26.91
14902;BME280;7542;49.078;9.194;2023-05-29T01:45:50;98622.06;;;29.44;26.78
14902;BME280;7542;49.078;9.194;2023-05-29T01:46:53;98619.38;;;29.44;26.77
14902;BME280;7542;49.078;9.194;2023-05-29T01:47:56;98621.28;;;29.44;26.74
14902;BME280;7542;49.078;9.194;2023-05-29T01:48:59;98619.13;;;29.41;27.22
14902;BME280;7542;49.078;9.194;2023-05-29T01:50:03;98619.13;;;29.41;26.84
14902;BME280;7542;49.078;9.194;2023-05-29T01:51:06;98623.72;;;29.40;27.10
14902;BME280;7542;49.078;9.194;2023-05-29T01:52:10;98621.31;;;29.39;26.90
14902;BME280;7542;49.078;9.194;2023-05-29T01:53:12;98621.81;;;29.41;26.87
14902;BME280;7542;49.078;9.194;2023-05-29T01:54:15;98619.41;;;29.39;27.19
14902;BME280;7542;49.078;9.194;2023-05-29T01:55:17;98618.63;;;29.39;27.05
14902;BME280;7542;49.078;9.194;2023-05-29T01:56:23;98620.81;;;29.37;26.85
14902;BME280;7542;49.078;9.194;2023-05-29T01:57:26;98626.72;;;29.39;26.88
14902;BME280;7542;49.078;9.194;2023-05-29T01:58:29;98618.41;;;29.35;26.89
14902;BME280;7542;49.078;9.194;2023-05-29T01:59:33;98625.72;;;29.35;27.29
14902;BME280;7542;49.078;9.194;2023-05-29T02:00:37;98621.63;;;29.37;27.35
14902;BME280;7542;49.078;9.194;2023-05-29T02:01:40;98617.31;;;29.36;27.50
14902;BME280;7542;49.078;9.194;2023-05-29T02:02:43;98623.53;;;29.37;27.39
14902;BME280;7542;49.078;9.194;2023-05-29T02:03:45;98614.63;;;29.36;27.56
14902;BME280;7542;49.078;9.194;2023-05-29T02:04:47;98618.41;;;29.35;27.52
14902;BME280;7542;49.078;9.194;2023-05-29T02:05:50;98618.91;;;29.37;27.60
14902;BME280;7542;49.078;9.194;2023-05-29T02:06:52;98622.72;;;29.36;27.53
14902;BME280;7542;49.078;9.194;2023-05-29T02:07:55;98616.22;;;29.37;27.63
14902;BME280;7542;49.078;9.194;2023-05-29T02:08:57;98615.41;;;29.37;27.56
14902;BME280;7542;49.078;9.194;2023-05-29T02:09:59;98618.91;;;29.37;27.45
14902;BME280;7542;49.078;9.194;2023-05-29T02:11:02;98609.22;;;29.36;27.53
14902;BME280;7542;49.078;9.194;2023-05-29T02:12:04;98619.72;;;29.38;27.24
14902;BME280;7542;49.078;9.194;2023-05-29T02:13:08;98614.31;;;29.38;27.41
14902;BME280;7542;49.078;9.194;2023-05-29T02:14:10;98615.41;;;29.37;27.06
14902;BME280;7542;49.078;9.194;2023-05-29T02:15:12;98615.13;;;29.38;27.51
14902;BME280;7542;49.078;9.194;2023-05-29T02:16:14;98614.31;;;29.38;27.05
14902;BME280;7542;49.078;9.194;2023-05-29T02:17:17;98614.31;;;29.38;27.23
14902;BME280;7542;49.078;9.194;2023-05-29T02:18:21;98615.13;;;29.38;26.98
14902;BME280;7542;49.078;9.194;2023-05-29T02:19:23;98613.00;;;29.35;27.13
14902;BME280;7542;49.078;9.194;2023-05-29T02:20:27;98614.63;;;29.36;27.18
14902;BME280;7542;49.078;9.194;2023-05-29T02:21:30;98612.72;;;29.37;26.94
14902;BME280;7542;49.078;9.194;2023-05-29T02:22:33;98623.53;;;29.37;27.15
14902;BME280;7542;49.078;9.194;2023-05-29T02:23:35;98621.31;;;29.39;27.29
14902;BME280;7542;49.078;9.194;2023-05-29T02:24:38;98612.72;;;29.37;26.87
14902;BME280;7542;49.078;9.194;2023-05-29T02:25:40;98614.63;;;29.36;27.08
14902;BME280;7542;49.078;9.194;2023-05-29T02:26:43;98613.00;;;29.35;27.09
14902;BME280;7542;49.078;9.194;2023-05-29T02:27:45;98616.22;;;29.37;27.05
14902;BME280;7542;49.078;9.194;2023-05-29T02:28:47;98608.72;;;29.34;27.13
14902;BME280;7542;49.078;9.194;2023-05-29T02:29:50;98616.50;;;29.36;27.06
14902;BME280;7542;49.078;9.194;2023-05-29T02:30:52;98607.91;;;29.34;26.88
14902;BME280;7542;49.078;9.194;2023-05-29T02:31:55;98605.19;;;29.34;27.01
14902;BME280;7542;49.078;9.194;2023-05-29T02:32:57;98607.09;;;29.33;27.16
14902;BME280;7542;49.078;9.194;2023-05-29T02:34:00;98606.31;;;29.33;27.16
14902;BME280;7542;49.078;9.194;2023-05-29T02:35:03;98602.00;;;29.32;26.71
14902;BME280;7542;49.078;9.194;2023-05-29T02:36:05;98603.09;;;29.31;26.74
14902;BME280;7542;49.078;9.194;2023-05-29T02:37:12;98604.41;;;29.33;26.56
14902;BME280;7542;49.078;9.194;2023-05-29T02:38:14;98600.66;;;29.29;26.76
14902;BME280;7542;49.078;9.194;2023-05-29T02:39:17;98605.25;;;29.29;26.95
14902;BME280;7542;49.078;9.194;2023-05-29T02:40:20;98605.56;;;29.27;26.71
14902;BME280;7542;49.078;9.194;2023-05-29T02:41:22;98601.47;;;29.30;26.63
14902;BME280;7542;49.078;9.194;2023-05-29T02:42:25;98606.66;;;29.26;26.99
14902;BME280;7542;49.078;9.194;2023-05-29T02:43:27;98606.34;;;29.28;26.93
14902;BME280;7542;49.078;9.194;2023-05-29T02:44:29;98605.84;;;29.26;26.95
14902;BME280;7542;49.078;9.194;2023-05-29T02:45:31;98606.66;;;29.26;26.99
14902;BME280;7542;49.078;9.194;2023-05-29T02:46:34;98610.16;;;29.27;26.96
14902;BME280;7542;49.078;9.194;2023-05-29T02:47:37;98612.84;;;29.27;26.93
14902;BME280;7542;49.078;9.194;2023-05-29T02:48:39;98607.75;;;29.25;26.70
14902;BME280;7542;49.078;9.194;2023-05-29T02:49:41;98606.44;;;29.23;26.89
14902;BME280;7542;49.078;9.194;2023-05-29T02:50:44;98608.34;;;29.22;26.79
14902;BME280;7542;49.078;9.194;2023-05-29T02:51:46;98612.94;;;29.22;26.89
14902;BME280;7542;49.078;9.194;2023-05-29T02:52:48;98604.03;;;29.21;26.76
14902;BME280;7542;49.078;9.194;2023-05-29T02:53:50;98610.22;;;29.22;26.77
14902;BME280;7542;49.078;9.194;2023-05-29T02:54:53;98606.44;;;29.23;26.69
14902;BME280;7542;49.078;9.194;2023-05-29T02:55:56;98611.34;;;29.21;26.62
14902;BME280;7542;49.078;9.194;2023-05-29T02:56:58;98608.63;;;29.21;27.07
14902;BME280;7542;49.078;9.194;2023-05-29T02:58:01;98613.22;;;29.20;26.74
14902;BME280;7542;49.078;9.194;2023-05-29T02:59:03;98608.63;;;29.21;27.10
14902;BME280;7542;49.078;9.194;2023-05-29T03:00:06;98608.91;;;29.19;26.83
14902;BME280;7542;49.078;9.194;2023-05-29T03:01:10;98609.19;;;29.17;26.75
14902;BME280;7542;49.078;9.194;2023-05-29T03:02:13;98608.38;;;29.17;26.78
14902;BME280;7542;49.078;9.194;2023-05-29T03:03:15;98613.28;;;29.15;26.82
14902;BME280;7542;49.078;9.194;2023-05-29T03:04:18;98612.47;;;29.14;26.93
14902;BME280;7542;49.078;9.194;2023-05-29T03:05:20;98615.19;;;29.14;26.99
14902;BME280;7542;49.078;9.194;2023-05-29T03:06:23;98614.38;;;29.14;26.83
14902;BME280;7542;49.078;9.194;2023-05-29T03:07:25;98615.47;;;29.13;26.75
14902;BME280;7542;49.078;9.194;2023-05-29T03:08:27;98615.78;;;29.11;26.90
14902;BME280;7542;49.078;9.194;2023-05-29T03:09:30;98610.06;;;29.13;26.94
14902;BME280;7542;49.078;9.194;2023-05-29T03:10:32;98612.25;;;29.11;27.07
14902;BME280;7542;49.078;9.194;2023-05-29T03:11:34;98609.56;;;29.11;26.61
14902;BME280;7542;49.078;9.194;2023-05-29T03:12:38;98610.94;;;29.08;27.10
14902;BME280;7542;49.078;9.194;2023-05-29T03:13:41;98605.53;;;29.08;26.81
14902;BME280;7542;49.078;9.194;2023-05-29T03:14:44;98603.94;;;29.07;26.96
14902;BME280;7542;49.078;9.194;2023-05-29T03:15:46;98616.63;;;29.07;26.75
14902;BME280;7542;49.078;9.194;2023-05-29T03:16:49;98609.63;;;29.06;26.80
14902;BME280;7542;49.078;9.194;2023-05-29T03:17:52;98606.91;;;29.06;26.69
14902;BME280;7542;49.078;9.194;2023-05-29T03:18:55;98605.91;;;29.02;26.61
14902;BME280;7542;49.078;9.194;2023-05-29T03:19:57;98608.31;;;29.03;26.77
14902;BME280;7542;49.078;9.194;2023-05-29T03:20:59;98618.59;;;29.01;26.79
14902;BME280;7542;49.078;9.194;2023-05-29T03:22:02;98611.31;;;29.02;26.75
14902;BME280;7542;49.078;9.194;2023-05-29T03:23:04;98614.81;;;29.02;26.80
14902;BME280;7542;49.078;9.194;2023-05-29T03:24:08;98609.69;;;29.01;26.58
14902;BME280;7542;49.078;9.194;2023-05-29T03:25:10;98610.00;;;28.99;26.62
14902;BME280;7542;49.078;9.194;2023-05-29T03:26:12;98611.88;;;28.99;26.63
14902;BME280;7542;49.078;9.194;2023-05-29T03:27:15;98616.19;;;29.00;26.72
14902;BME280;7542;49.078;9.194;2023-05-29T03:28:17;98610.25;;;28.98;26.88
14902;BME280;7542;49.078;9.194;2023-05-29T03:29:19;98615.66;;;28.98;26.87
14902;BME280;7542;49.078;9.194;2023-05-29T03:30:22;98612.44;;;28.96;26.84
14902;BME280;7542;49.078;9.194;2023-05-29T03:31:24;98613.84;;;28.93;26.83
14902;BME280;7542;49.078;9.194;2023-05-29T03:32:26;98615.72;;;28.93;26.70
14902;BME280;7542;49.078;9.194;2023-05-29T03:33:29;98615.72;;;28.93;26.67
14902;BME280;7542;49.078;9.194;2023-05-29T03:34:31;98611.94;;;28.94;26.85
14902;BME280;7542;49.078;9.194;2023-05-29T03:35:34;98618.44;;;28.93;26.73
14902;BME280;7542;49.078;9.194;2023-05-29T03:36:36;98617.63;;;28.92;26.80
14902;BME280;7542;49.078;9.194;2023-05-29T03:37:39;98615.22;;;28.91;26.63
14902;BME280;7542;49.078;9.194;2023-05-29T03:38:41;98612.53;;;28.91;26.81
14902;BME280;7542;49.078;9.194;2023-05-29T03:39:43;98607.41;;;28.89;26.54
14902;BME280;7542;49.078;9.194;2023-05-29T03:40:46;98610.13;;;28.89;26.64
14902;BME280;7542;49.078;9.194;2023-05-29T03:41:48;98609.81;;;28.91;26.60
14902;BME280;7542;49.078;9.194;2023-05-29T03:42:50;98607.41;;;28.89;26.87
14902;BME280;7542;49.078;9.194;2023-05-29T03:43:53;98610.91;;;28.90;26.56
14902;BME280;7542;49.078;9.194;2023-05-29T03:44:55;98612.00;;;28.89;26.73
14902;BME280;7542;49.078;9.194;2023-05-29T03:45:57;98608.75;;;28.86;26.83
14902;BME280;7542;49.078;9.194;2023-05-29T03:46:59;98608.75;;;28.86;26.76
14902;BME280;7542;49.078;9.194;2023-05-29T03:48:02;98609.03;;;28.85;26.80
14902;BME280;7542;49.078;9.194;2023-05-29T03:49:04;98618.22;;;28.84;26.77
14902;BME280;7542;49.078;9.194;2023-05-29T03:50:09;98608.53;;;28.83;26.53
14902;BME280;7542;49.078;9.194;2023-05-29T03:51:12;98608.81;;;28.81;26.84
14902;BME280;7542;49.078;9.194;2023-05-29T03:52:14;98606.91;;;28.82;26.62
14902;BME280;7542;49.078;9.194;2023-05-29T03:53:16;98614.72;;;28.83;26.57
14902;BME280;7542;49.078;9.194;2023-05-29T03:54:18;98616.63;;;28.83;26.81
14902;BME280;7542;49.078;9.194;2023-05-29T03:55:21;98613.41;;;28.81;26.50
14902;BME280;7542;49.078;9.194;2023-05-29T03:56:24;98616.13;;;28.81;26.80
14902;BME280;7542;49.078;9.194;2023-05-29T03:57:26;98620.41;;;28.82;26.71
14902;BME280;7542;49.078;9.194;2023-05-29T03:58:29;98619.09;;;28.79;26.55
14902;BME280;7542;49.078;9.194;2023-05-29T03:59:32;98620.72;;;28.80;26.66
14902;BME280;7542;49.078;9.194;2023-05-29T04:00:34;98622.09;;;28.78;26.82
14902;BME280;7542;49.078;9.194;2023-05-29T04:01:37;98615.59;;;28.79;26.52
14902;BME280;7542;49.078;9.194;2023-05-29T04:02:39;98616.44;;;28.74;26.60
14902;BME280;7542;49.078;9.194;2023-05-29T04:03:42;98618.06;;;28.75;26.52
14902;BME280;7542;49.078;9.194;2023-05-29T04:04:46;98624.53;;;28.74;26.90
14902;BME280;7542;49.078;9.194;2023-05-29T04:05:49;98623.44;;;28.75;26.69
14902;BME280;7542;49.078;9.194;2023-05-29T04:06:51;98623.22;;;28.72;26.49
14902;BME280;7542;49.078;9.194;2023-05-29T04:07:53;98626.72;;;28.72;26.61
14902;BME280;7542;49.078;9.194;2023-05-29T04:09:08;98619.44;;;28.73;27.11
14902;BME280;7542;49.078;9.194;2023-05-29T04:10:11;98628.63;;;28.72;26.81
14902;BME280;7542;49.078;9.194;2023-05-29T04:11:14;98635.91;;;28.71;26.77
14902;BME280;7542;49.078;9.194;2023-05-29T04:12:16;98637.81;;;28.71;26.65
14902;BME280;7542;49.078;9.194;2023-05-29T04:13:19;98640.00;;;28.69;26.90
14902;BME280;7542;49.078;9.194;2023-05-29T04:14:22;98643.50;;;28.69;27.00
14902;BME280;7542;49.078;9.194;2023-05-29T04:15:24;98647.00;;;28.70;26.90
14902;BME280;7542;49.078;9.194;2023-05-29T04:16:28;98646.50;;;28.68;26.94
14902;BME280;7542;49.078;9.194;2023-05-29T04:17:31;98645.69;;;28.67;26.65
14902;BME280;7542;49.078;9.194;2023-05-29T04:18:33;98641.09;;;28.68;26.85
14902;BME280;7542;49.078;9.194;2023-05-29T04:19:35;98649.19;;;28.68;26.77
14902;BME280;7542;49.078;9.194;2023-05-29T04:20:38;98645.97;;;28.66;27.03
14902;BME280;7542;49.078;9.194;2023-05-29T04:21:40;98652.44;;;28.65;26.72
14902;BME280;7542;49.078;9.194;2023-05-29T04:22:42;98647.63;;;28.62;26.93
14902;BME280;7542;49.078;9.194;2023-05-29T04:23:45;98656.22;;;28.64;26.95
14902;BME280;7542;49.078;9.194;2023-05-29T04:24:47;98646.53;;;28.63;26.80
14902;BME280;7542;49.078;9.194;2023-05-29T04:25:49;98656.81;;;28.61;26.74
14902;BME280;7542;49.078;9.194;2023-05-29T04:26:54;98652.50;;;28.59;26.78
14902;BME280;7542;49.078;9.194;2023-05-29T04:27:57;98656.00;;;28.60;26.78
14902;BME280;7542;49.078;9.194;2023-05-29T04:28:59;98649.53;;;28.61;26.78
14902;BME280;7542;49.078;9.194;2023-05-29T04:30:08;98653.59;;;28.58;27.00
14902;BME280;7542;49.078;9.194;2023-05-29T04:31:10;98649.00;;;28.59;26.78
14902;BME280;7542;49.078;9.194;2023-05-29T04:32:16;98650.09;;;28.58;26.84
14902;BME280;7542;49.078;9.194;2023-05-29T04:33:19;98652.50;;;28.59;27.04
14902;BME280;7542;49.078;9.194;2023-05-29T04:34:23;98655.19;;;28.59;27.06
14902;BME280;7542;49.078;9.194;2023-05-29T04:35:25;98653.09;;;28.56;27.15
14902;BME280;7542;49.078;9.194;2023-05-29T04:36:30;98656.28;;;28.58;26.99
14902;BME280;7542;49.078;9.194;2023-05-29T04:37:34;98652.28;;;28.56;26.79
14902;BME280;7542;49.078;9.194;2023-05-29T04:38:40;98657.94;;;28.54;26.86
14902;BME280;7542;49.078;9.194;2023-05-29T04:39:43;98651.19;;;28.57;27.13
14902;BME280;7542;49.078;9.194;2023-05-29T04:40:45;98658.22;;;28.53;26.88
14902;BME280;7542;49.078;9.194;2023-05-29T04:41:47;98659.84;;;28.54;27.12
14902;BME280;7542;49.078;9.194;2023-05-29T04:42:50;98661.72;;;28.53;27.13
14902;BME280;7542;49.078;9.194;2023-05-29T04:43:52;98662.00;;;28.52;27.38
14902;BME280;7542;49.078;9.194;2023-05-29T04:44:55;98661.72;;;28.53;27.17
14902;BME280;7542;49.078;9.194;2023-05-29T04:45:57;98665.50;;;28.52;27.05
14902;BME280;7542;49.078;9.194;2023-05-29T04:47:00;98656.09;;;28.50;27.40
14902;BME280;7542;49.078;9.194;2023-05-29T04:48:06;98674.41;;;28.53;27.24
14902;BME280;7542;49.078;9.194;2023-05-29T04:49:11;98664.72;;;28.52;27.08
14902;BME280;7542;49.078;9.194;2023-05-29T04:50:16;98668.00;;;28.49;27.32
14902;BME280;7542;49.078;9.194;2023-05-29T04:51:20;98682.78;;;28.51;27.39
14902;BME280;7542;49.078;9.194;2023-05-29T04:52:23;98682.78;;;28.51;27.36
14902;BME280;7542;49.078;9.194;2023-05-29T04:53:25;98686.59;;;28.50;27.38
14902;BME280;7542;49.078;9.194;2023-05-29T04:54:28;98682.56;;;28.48;27.43
14902;BME280;7542;49.078;9.194;2023-05-29T04:55:30;98685.78;;;28.50;27.36
14902;BME280;7542;49.078;9.194;2023-05-29T04:56:33;98682.56;;;28.48;27.14
14902;BME280;7542;49.078;9.194;2023-05-29T04:57:35;98696.84;;;28.48;27.28
14902;BME280;7542;49.078;9.194;2023-05-29T04:58:37;98690.16;;;28.46;27.29
14902;BME280;7542;49.078;9.194;2023-05-29T04:59:40;98695.25;;;28.47;27.50
14902;BME280;7542;49.078;9.194;2023-05-29T05:00:42;98695.25;;;28.47;27.51
14902;BME280;7542;49.078;9.194;2023-05-29T05:01:45;98699.56;;;28.48;27.31
14902;BME280;7542;49.078;9.194;2023-05-29T05:02:50;98696.34;;;28.46;27.43
14902;BME280;7542;49.078;9.194;2023-05-29T05:03:53;98701.72;;;28.46;27.40
14902;BME280;7542;49.078;9.194;2023-05-29T05:04:58;98699.03;;;28.46;27.58
14902;BME280;7542;49.078;9.194;2023-05-29T05:06:01;98695.53;;;28.46;27.42
14902;BME280;7542;49.078;9.194;2023-05-29T05:07:08;98701.72;;;28.46;27.47
14902;BME280;7542;49.078;9.194;2023-05-29T05:08:11;98694.44;;;28.47;27.49
14902;BME280;7542;49.078;9.194;2023-05-29T05:09:13;98693.94;;;28.45;27.45
14902;BME280;7542;49.078;9.194;2023-05-29T05:10:16;98696.63;;;28.45;27.48
14902;BME280;7542;49.078;9.194;2023-05-29T05:11:19;98697.97;;;28.42;27.68
14902;BME280;7542;49.078;9.194;2023-05-29T05:12:22;98699.59;;;28.43;27.69
14902;BME280;7542;49.078;9.194;2023-05-29T05:13:24;98696.09;;;28.43;27.70
14902;BME280;7542;49.078;9.194;2023-05-29T05:14:27;98697.97;;;28.42;27.64
14902;BME280;7542;49.078;9.194;2023-05-29T05:15:31;98693.38;;;28.43;27.79
14902;BME280;7542;49.078;9.194;2023-05-29T05:16:34;98691.50;;;28.43;27.59
14902;BME280;7542;49.078;9.194;2023-05-29T05:17:36;98690.69;;;28.43;27.61
14902;BME280;7542;49.078;9.194;2023-05-29T05:18:39;98693.66;;;28.41;27.56
14902;BME280;7542;49.078;9.194;2023-05-29T05:19:41;98694.75;;;28.40;27.69
14902;BME280;7542;49.078;9.194;2023-05-29T05:20:44;98695.56;;;28.41;27.78
14902;BME280;7542;49.078;9.194;2023-05-29T05:21:46;98691.25;;;28.40;27.53
14902;BME280;7542;49.078;9.194;2023-05-29T05:22:49;98697.19;;;28.42;27.76
14902;BME280;7542;49.078;9.194;2023-05-29T05:23:51;98691.78;;;28.42;27.53
14902;BME280;7542;49.078;9.194;2023-05-29T05:24:59;98701.25;;;28.39;27.73
14902;BME280;7542;49.078;9.194;2023-05-29T05:26:02;98702.06;;;28.40;27.61
14902;BME280;7542;49.078;9.194;2023-05-29T05:27:05;98712.84;;;28.40;27.53
14902;BME280;7542;49.078;9.194;2023-05-29T05:28:09;98708.25;;;28.40;27.61
14902;BME280;7542;49.078;9.194;2023-05-29T05:29:12;98705.03;;;28.38;27.87
14902;BME280;7542;49.078;9.194;2023-05-29T05:30:15;98710.44;;;28.38;27.71
14902;BME280;7542;49.078;9.194;2023-05-29T05:31:18;98711.53;;;28.37;27.85
14902;BME280;7542;49.078;9.194;2023-05-29T05:32:20;98716.91;;;28.37;27.79
14902;BME280;7542;49.078;9.194;2023-05-29T05:33:23;98720.69;;;28.36;27.79
14902;BME280;7542;49.078;9.194;2023-05-29T05:34:25;98718.53;;;28.38;27.72
14902;BME280;7542;49.078;9.194;2023-05-29T05:35:28;98714.50;;;28.36;27.86
14902;BME280;7542;49.078;9.194;2023-05-29T05:36:30;98720.41;;;28.38;27.67
14902;BME280;7542;49.078;9.194;2023-05-29T05:37:33;98719.63;;;28.37;28.04
14902;BME280;7542;49.078;9.194;2023-05-29T05:38:35;98714.50;;;28.36;28.02
14902;BME280;7542;49.078;9.194;2023-05-29T05:39:37;98722.03;;;28.39;27.81
14902;BME280;7542;49.078;9.194;2023-05-29T05:40:40;98719.63;;;28.37;27.93
14902;BME280;7542;49.078;9.194;2023-05-29T05:41:42;98723.41;;;28.36;27.84
14902;BME280;7542;49.078;9.194;2023-05-29T05:42:44;98721.22;;;28.38;28.05
14902;BME280;7542;49.078;9.194;2023-05-29T05:43:47;98728.22;;;28.39;27.86
14902;BME280;7542;49.078;9.194;2023-05-29T05:44:49;98728.22;;;28.39;28.17